sensor_id;sensor_type;location;lat;lon;timestamp;pressure;altitude;pressure_sealevel;temperature;humidity
27294;BME280;14785;52.556;13.430;2023-04-28T00:00:25;101124.94;;;10.40;100.00
27294;BME280;14785;52.556;13.430;2023-04-28T00:02:50;101121.25;;;10.51;100.00
27294;BME280;14785;52.556;13.430;2023-04-28T00:05:16;101125.78;;;10.31;100.00
27294;BME280;14785;52.556;13.430;2023-04-28T00:07:43;101130.19;;;10.13;100.00
27294;BME280;14785;52.556;13.430;2023-04-28T00:10:08;101114.41;;;10.48;100.00
27294;BME280;14785;52.556;13.430;2023-04-28T00:12:34;101120.44;;;10.50;100.00
27294;BME280;14785;52.556;13.430;2023-04-28T00:14:59;101119.91;;;10.37;100.00
27294;BME280;14785;52.556;13.430;2023-04-28T00:17:25;101122.09;;;10.51;100.00
27294;BME280;14785;52.556;13.430;2023-04-28T00:19:50;101121.34;;;10.68;100.00
27294;BME280;14785;52.556;13.430;2023-04-28T00:22:17;101118.00;;;10.66;100.00
27294;BME280;14785;52.556;13.430;2023-04-28T00:24:43;101116.66;;;10.43;100.00
27294;BME280;14785;52.556;13.430;2023-04-28T00:27:09;101122.19;;;9.75;100.00
27294;BME280;14785;52.556;13.430;2023-04-28T00:29:34;101126.84;;;9.05;100.00
27294;BME280;14785;52.556;13.430;2023-04-28T00:32:01;101121.63;;;9.62;100.00
27294;BME280;14785;52.556;13.430;2023-04-28T00:34:26;101117.03;;;9.54;100.00
27294;BME280;14785;52.556;13.430;2023-04-28T00:36:52;101112.84;;;9.71;100.00
27294;BME280;14785;52.556;13.430;2023-04-28T00:39:17;101116.59;;;9.59;100.00
27294;BME280;14785;52.556;13.430;2023-04-28T00:41:43;101111.81;;;9.24;100.00
27294;BME280;14785;52.556;13.430;2023-04-28T00:44:08;101110.47;;;9.68;100.00
27294;BME280;14785;52.556;13.430;2023-04-28T00:46:33;101109.59;;;9.39;100.00
27294;BME280;14785;52.556;13.430;2023-04-28T00:48:59;101107.03;;;9.18;100.00
27294;BME280;14785;52.556;13.430;2023-04-28T00:51:24;101102.88;;;9.73;100.00
27294;BME280;14785;52.556;13.430;2023-04-28T00:53:51;101100.91;;;9.94;100.00
27294;BME280;14785;52.556;13.430;2023-04-28T00:56:17;101102.06;;;10.01;100.00
27294;BME280;14785;52.556;13.430;2023-04-28T00:58:42;101102.06;;;10.01;100.00
27294;BME280;14785;52.556;13.430;2023-04-28T01:01:10;101101.50;;;10.07;100.00
27294;BME280;14785;52.556;13.430;2023-04-28T01:03:39;101096.44;;;10.04;100.00
27294;BME280;14785;52.556;13.430;2023-04-28T01:06:07;101089.16;;;10.25;100.00
27294;BME280;14785;52.556;13.430;2023-04-28T01:08:34;101095.78;;;10.48;100.00
27294;BME280;14785;52.556;13.430;2023-04-28T01:11:00;101098.75;;;10.45;100.00
27294;BME280;14785;52.556;13.430;2023-04-28T01:13:27;101088.91;;;10.55;100.00
27294;BME280;14785;52.556;13.430;2023-04-28T01:15:53;101091.56;;;10.55;100.00
27294;BME280;14785;52.556;13.430;2023-04-28T01:18:19;101091.97;;;10.60;100.00
27294;BME280;14785;52.556;13.430;2023-04-28T01:20:44;101087.78;;;10.58;100.00
27294;BME280;14785;52.556;13.430;2023-04-28T01:23:13;101085.44;;;10.55;100.00
27294;BME280;14785;52.556;13.430;2023-04-28T01:25:39;101078.09;;;10.66;100.00
27294;BME280;14785;52.556;13.430;2023-04-28T01:28:05;101071.09;;;10.65;100.00
27294;BME280;14785;52.556;13.430;2023-04-28T01:30:30;101071.69;;;10.59;100.00
27294;BME280;14785;52.556;13.430;2023-04-28T01:32:56;101073.91;;;10.64;100.00
27294;BME280;14785;52.556;13.430;2023-04-28T01:35:21;101072.28;;;10.53;100.00
27294;BME280;14785;52.556;13.430;2023-04-28T01:37:47;101075.31;;;10.58;100.00
27294;BME280;14785;52.556;13.430;2023-04-28T01:40:12;101058.84;;;10.45;100.00
27294;BME280;14785;52.556;13.430;2023-04-28T01:42:38;101066.91;;;10.26;100.00
27294;BME280;14785;52.556;13.430;2023-04-28T01:45:03;101065.63;;;10.30;100.00
27294;BME280;14785;52.556;13.430;2023-04-28T01:47:30;101062.81;;;10.41;100.00
27294;BME280;14785;52.556;13.430;2023-04-28T01:49:55;101064.81;;;10.20;100.00
27294;BME280;14785;52.556;13.430;2023-04-28T01:52:23;101064.31;;;10.07;100.00
27294;BME280;14785;52.556;13.430;2023-04-28T01:54:49;101061.34;;;10.01;100.00
27294;BME280;14785;52.556;13.430;2023-04-28T01:57:15;101065.81;;;10.10;100.00
27294;BME280;14785;52.556;13.430;2023-04-28T01:59:41;101062.34;;;9.90;100.00
27294;BME280;14785;52.556;13.430;2023-04-28T02:02:06;101067.66;;;10.00;100.00
27294;BME280;14785;52.556;13.430;2023-04-28T02:04:32;101058.41;;;9.94;100.00
27294;BME280;14785;52.556;13.430;2023-04-28T02:06:57;101056.72;;;10.03;100.00
27294;BME280;14785;52.556;13.430;2023-04-28T02:09:23;101059.25;;;9.85;100.00
27294;BME280;14785;52.556;13.430;2023-04-28T02:11:48;101052.50;;;10.00;100.00
27294;BME280;14785;52.556;13.430;2023-04-28T02:14:14;101054.22;;;10.01;100.00
27294;BME280;14785;52.556;13.430;2023-04-28T02:16:39;101058.44;;;9.75;100.00
27294;BME280;14785;52.556;13.430;2023-04-28T02:19:05;101059.00;;;9.79;100.00
27294;BME280;14785;52.556;13.430;2023-04-28T02:21:30;101064.88;;;9.63;100.00
27294;BME280;14785;52.556;13.430;2023-04-28T02:23:56;101061.53;;;9.70;100.00
27294;BME280;14785;52.556;13.430;2023-04-28T02:26:21;101055.91;;;9.83;100.00
27294;BME280;14785;52.556;13.430;2023-04-28T02:28:47;101051.72;;;9.90;100.00
27294;BME280;14785;52.556;13.430;2023-04-28T02:31:13;101048.34;;;10.07;100.00
27294;BME280;14785;52.556;13.430;2023-04-28T02:33:39;101048.06;;;10.10;100.00
27294;BME280;14785;52.556;13.430;2023-04-28T02:36:06;101048.06;;;9.91;100.00
27294;BME280;14785;52.556;13.430;2023-04-28T02:38:32;101056.44;;;10.06;100.00
27294;BME280;14785;52.556;13.430;2023-04-28T02:41:05;101037.97;;;10.04;100.00
27294;BME280;14785;52.556;13.430;2023-04-28T02:43:32;101039.66;;;10.05;100.00
27294;BME280;14785;52.556;13.430;2023-04-28T02:45:57;101040.50;;;10.06;100.00
27294;BME280;14785;52.556;13.430;2023-04-28T02:48:24;101045.13;;;9.94;100.00
27294;BME280;14785;52.556;13.430;2023-04-28T02:50:49;101041.94;;;9.91;100.00
27294;BME280;14785;52.556;13.430;2023-04-28T02:53:15;101044.16;;;9.95;100.00
27294;BME280;14785;52.556;13.430;2023-04-28T02:55:41;101039.13;;;9.92;100.00
27294;BME280;14785;52.556;13.430;2023-04-28T02:58:06;101035.50;;;9.84;100.00
27294;BME280;14785;52.556;13.430;2023-04-28T03:00:32;101032.28;;;9.80;100.00
27294;BME280;14785;52.556;13.430;2023-04-28T03:02:57;101039.13;;;9.83;100.00
27294;BME280;14785;52.556;13.430;2023-04-28T03:05:23;101039.97;;;9.83;100.00
27294;BME280;14785;52.556;13.430;2023-04-28T03:07:48;101033.81;;;9.83;100.00
27294;BME280;14785;52.556;13.430;2023-04-28T03:10:14;101029.06;;;9.86;100.00
27294;BME280;14785;52.556;13.430;2023-04-28T03:12:39;101039.13;;;9.73;100.00
27294;BME280;14785;52.556;13.430;2023-04-28T03:15:05;101036.06;;;9.87;100.00
27294;BME280;14785;52.556;13.430;2023-04-28T03:17:33;101027.66;;;9.82;100.00
27294;BME280;14785;52.556;13.430;2023-04-28T03:19:58;101028.22;;;9.76;100.00
27294;BME280;14785;52.556;13.430;2023-04-28T03:22:24;101021.25;;;9.75;100.00
27294;BME280;14785;52.556;13.430;2023-04-28T03:24:49;101022.91;;;9.76;100.00
27294;BME280;14785;52.556;13.430;2023-04-28T03:27:15;101027.38;;;9.85;100.00
27294;BME280;14785;52.556;13.430;2023-04-28T03:29:40;101020.13;;;9.77;100.00
27294;BME280;14785;52.556;13.430;2023-04-28T03:32:05;101025.16;;;9.81;100.00
27294;BME280;14785;52.556;13.430;2023-04-28T03:34:31;101019.25;;;9.87;100.00
27294;BME280;14785;52.556;13.430;2023-04-28T03:36:56;101013.50;;;9.91;100.00
27294;BME280;14785;52.556;13.430;2023-04-28T03:39:22;101005.31;;;9.75;100.00
27294;BME280;14785;52.556;13.430;2023-04-28T03:41:47;101016.34;;;9.80;100.00
27294;BME280;14785;52.556;13.430;2023-04-28T03:44:13;101016.50;;;9.79;100.00
27294;BME280;14785;52.556;13.430;2023-04-28T03:46:38;101008.69;;;9.77;100.00
27294;BME280;14785;52.556;13.430;2023-04-28T03:49:04;101010.91;;;9.82;100.00
27294;BME280;14785;52.556;13.430;2023-04-28T03:51:30;101009.47;;;9.87;100.00
27294;BME280;14785;52.556;13.430;2023-04-28T03:53:57;101004.41;;;10.03;100.00
27294;BME280;14785;52.556;13.430;2023-04-28T03:56:22;101012.56;;;9.83;100.00
27294;BME280;14785;52.556;13.430;2023-04-28T03:58:48;101009.19;;;9.90;100.00
27294;BME280;14785;52.556;13.430;2023-04-28T04:01:13;100996.91;;;9.89;100.00
27294;BME280;14785;52.556;13.430;2023-04-28T04:03:38;100997.34;;;9.85;100.00
27294;BME280;14785;52.556;13.430;2023-04-28T04:06:04;101005.03;;;9.88;100.00
27294;BME280;14785;52.556;13.430;2023-04-28T04:08:30;100997.44;;;10.12;100.00
27294;BME280;14785;52.556;13.430;2023-04-28T04:10:57;100994.63;;;10.04;100.00
27294;BME280;14785;52.556;13.430;2023-04-28T04:13:22;100997.69;;;9.99;100.00
27294;BME280;14785;52.556;13.430;2023-04-28T04:15:47;100984.13;;;10.02;100.00
27294;BME280;14785;52.556;13.430;2023-04-28T04:18:14;100981.19;;;10.05;100.00
27294;BME280;14785;52.556;13.430;2023-04-28T04:20:40;100990.38;;;10.20;100.00
27294;BME280;14785;52.556;13.430;2023-04-28T04:23:05;100986.28;;;10.35;100.00
27294;BME280;14785;52.556;13.430;2023-04-28T04:25:31;100988.53;;;10.30;100.00
27294;BME280;14785;52.556;13.430;2023-04-28T04:27:58;100992.75;;;10.23;100.00
27294;BME280;14785;52.556;13.430;2023-04-28T04:30:23;100987.63;;;10.12;100.00
27294;BME280;14785;52.556;13.430;2023-04-28T04:32:49;100990.03;;;10.33;100.00
27294;BME280;14785;52.556;13.430;2023-04-28T04:35:14;100984.97;;;10.39;100.00
27294;BME280;14785;52.556;13.430;2023-04-28T04:37:40;100978.81;;;10.39;100.00
27294;BME280;14785;52.556;13.430;2023-04-28T04:40:06;100984.63;;;10.25;100.00
27294;BME280;14785;52.556;13.430;2023-04-28T04:42:31;100981.72;;;10.18;100.00
27294;BME280;14785;52.556;13.430;2023-04-28T04:44:57;100978.47;;;9.68;100.00
27294;BME280;14785;52.556;13.430;2023-04-28T04:47:22;100970.00;;;10.02;100.00
27294;BME280;14785;52.556;13.430;2023-04-28T04:49:48;100968.03;;;10.13;100.00
27294;BME280;14785;52.556;13.430;2023-04-28T04:52:14;100968.53;;;10.26;100.00
27294;BME280;14785;52.556;13.430;2023-04-28T04:54:40;100964.66;;;10.21;100.00
27294;BME280;14785;52.556;13.430;2023-04-28T04:57:05;100973.06;;;10.43;100.00
27294;BME280;14785;52.556;13.430;2023-04-28T04:59:31;100982.31;;;10.03;100.00
27294;BME280;14785;52.556;13.430;2023-04-28T05:01:57;100965.81;;;9.99;100.00
27294;BME280;14785;52.556;13.430;2023-04-28T05:04:22;100966.19;;;9.58;100.00
27294;BME280;14785;52.556;13.430;2023-04-28T05:06:48;100958.53;;;10.01;100.00
27294;BME280;14785;52.556;13.430;2023-04-28T05:09:14;100955.63;;;10.31;100.00
27294;BME280;14785;52.556;13.430;2023-04-28T05:11:40;100962.09;;;10.29;100.00
27294;BME280;14785;52.556;13.430;2023-04-28T05:14:05;100954.44;;;10.43;100.00
27294;BME280;14785;52.556;13.430;2023-04-28T05:16:31;100959.72;;;10.26;100.00
27294;BME280;14785;52.556;13.430;2023-04-28T05:18:56;100956.47;;;10.32;100.00
27294;BME280;14785;52.556;13.430;2023-04-28T05:21:22;100959.22;;;10.03;100.00
27294;BME280;14785;52.556;13.430;2023-04-28T05:23:47;100956.63;;;10.57;100.00
27294;BME280;14785;52.556;13.430;2023-04-28T05:26:13;100954.06;;;10.65;100.00
27294;BME280;14785;52.556;13.430;2023-04-28T05:28:39;100953.91;;;10.84;100.00
27294;BME280;14785;52.556;13.430;2023-04-28T05:31:05;100958.34;;;10.49;100.00
27294;BME280;14785;52.556;13.430;2023-04-28T05:33:31;100959.28;;;10.57;100.00
27294;BME280;14785;52.556;13.430;2023-04-28T05:35:56;100952.47;;;10.72;100.00
27294;BME280;14785;52.556;13.430;2023-04-28T05:38:22;100955.81;;;10.74;100.00
27294;BME280;14785;52.556;13.430;2023-04-28T05:40:47;100944.94;;;10.85;100.00
27294;BME280;14785;52.556;13.430;2023-04-28T05:43:13;100940.66;;;10.57;100.00
27294;BME280;14785;52.556;13.430;2023-04-28T05:45:39;100943.59;;;10.37;100.00
27294;BME280;14785;52.556;13.430;2023-04-28T05:48:04;100942.09;;;10.52;100.00
27294;BME280;14785;52.556;13.430;2023-04-28T05:50:30;100941.84;;;10.45;100.00
27294;BME280;14785;52.556;13.430;2023-04-28T05:52:56;100933.88;;;10.45;100.00
27294;BME280;14785;52.556;13.430;2023-04-28T05:55:22;100934.91;;;10.79;100.00
27294;BME280;14785;52.556;13.430;2023-04-28T05:57:47;100930.72;;;10.59;100.00
27294;BME280;14785;52.556;13.430;2023-04-28T06:00:13;100925.16;;;10.70;100.00
27294;BME280;14785;52.556;13.430;2023-04-28T06:02:39;100927.00;;;10.70;100.00
27294;BME280;14785;52.556;13.430;2023-04-28T06:05:06;100927.56;;;10.91;100.00
27294;BME280;14785;52.556;13.430;2023-04-28T06:07:31;100926.53;;;11.09;100.00
27294;BME280;14785;52.556;13.430;2023-04-28T06:09:56;100923.09;;;11.17;100.00
27294;BME280;14785;52.556;13.430;2023-04-28T06:12:22;100924.19;;;11.06;100.00
27294;BME280;14785;52.556;13.430;2023-04-28T06:14:47;100923.56;;;11.12;100.00
27294;BME280;14785;52.556;13.430;2023-04-28T06:17:13;100928.34;;;11.26;100.00
27294;BME280;14785;52.556;13.430;2023-04-28T06:19:38;100913.69;;;11.66;100.00
27294;BME280;14785;52.556;13.430;2023-04-28T06:22:04;100912.09;;;11.55;100.00
27294;BME280;14785;52.556;13.430;2023-04-28T06:24:29;100908.75;;;11.53;100.00
27294;BME280;14785;52.556;13.430;2023-04-28T06:26:55;100906.03;;;11.63;100.00
27294;BME280;14785;52.556;13.430;2023-04-28T06:29:20;100907.28;;;11.58;100.00
27294;BME280;14785;52.556;13.430;2023-04-28T06:31:48;100904.47;;;11.86;100.00
27294;BME280;14785;52.556;13.430;2023-04-28T06:34:13;100898.19;;;11.95;100.00
27294;BME280;14785;52.556;13.430;2023-04-28T06:36:39;100901.28;;;12.08;100.00
27294;BME280;14785;52.556;13.430;2023-04-28T06:39:04;100900.00;;;12.28;100.00
27294;BME280;14785;52.556;13.430;2023-04-28T06:41:30;100894.66;;;12.28;100.00
27294;BME280;14785;52.556;13.430;2023-04-28T06:43:56;100898.78;;;12.14;100.00
27294;BME280;14785;52.556;13.430;2023-04-28T06:46:21;100891.72;;;12.39;100.00
27294;BME280;14785;52.556;13.430;2023-04-28T06:48:46;100890.81;;;12.22;100.00
27294;BME280;14785;52.556;13.430;2023-04-28T06:51:13;100900.16;;;12.18;100.00
27294;BME280;14785;52.556;13.430;2023-04-28T06:53:38;100889.53;;;11.93;100.00
27294;BME280;14785;52.556;13.430;2023-04-28T06:56:04;100891.31;;;12.18;100.00
27294;BME280;14785;52.556;13.430;2023-04-28T06:58:30;100889.66;;;12.25;100.00
27294;BME280;14785;52.556;13.430;2023-04-28T07:00:55;100878.66;;;12.20;100.00
27294;BME280;14785;52.556;13.430;2023-04-28T07:03:21;100884.44;;;12.07;100.00
27294;BME280;14785;52.556;13.430;2023-04-28T07:05:46;100879.25;;;12.06;100.00
27294;BME280;14785;52.556;13.430;2023-04-28T07:08:11;100880.44;;;12.11;98.63
27294;BME280;14785;52.556;13.430;2023-04-28T07:10:37;100877.44;;;12.14;97.03
27294;BME280;14785;52.556;13.430;2023-04-28T07:13:02;100874.88;;;11.97;96.62
27294;BME280;14785;52.556;13.430;2023-04-28T07:15:28;100877.19;;;11.92;96.64
27294;BME280;14785;52.556;13.430;2023-04-28T07:17:53;100870.38;;;12.39;97.51
27294;BME280;14785;52.556;13.430;2023-04-28T07:20:19;100863.69;;;12.43;94.67
27294;BME280;14785;52.556;13.430;2023-04-28T07:22:44;100867.69;;;12.47;94.71
27294;BME280;14785;52.556;13.430;2023-04-28T07:25:10;100869.88;;;12.51;94.95
27294;BME280;14785;52.556;13.430;2023-04-28T07:27:36;100848.41;;;12.77;93.33
27294;BME280;14785;52.556;13.430;2023-04-28T07:30:01;100855.22;;;12.55;93.44
27294;BME280;14785;52.556;13.430;2023-04-28T07:32:27;100855.56;;;12.60;92.97
27294;BME280;14785;52.556;13.430;2023-04-28T07:34:52;100844.56;;;12.55;93.93
27294;BME280;14785;52.556;13.430;2023-04-28T07:37:18;100852.09;;;12.76;94.46
27294;BME280;14785;52.556;13.430;2023-04-28T07:39:43;100850.44;;;12.75;94.97
27294;BME280;14785;52.556;13.430;2023-04-28T07:42:09;100848.25;;;12.70;95.64
27294;BME280;14785;52.556;13.430;2023-04-28T07:44:35;100838.75;;;12.84;95.96
27294;BME280;14785;52.556;13.430;2023-04-28T07:47:00;100838.56;;;12.93;100.00
27294;BME280;14785;52.556;13.430;2023-04-28T07:49:28;100841.72;;;12.89;98.02
27294;BME280;14785;52.556;13.430;2023-04-28T07:51:54;100822.75;;;13.08;98.71
27294;BME280;14785;52.556;13.430;2023-04-28T07:54:20;100829.41;;;13.04;95.70
27294;BME280;14785;52.556;13.430;2023-04-28T07:56:46;100827.72;;;13.19;94.75
27294;BME280;14785;52.556;13.430;2023-04-28T07:59:11;100820.06;;;13.32;93.49
27294;BME280;14785;52.556;13.430;2023-04-28T08:01:37;100819.69;;;13.35;92.31
27294;BME280;14785;52.556;13.430;2023-04-28T08:04:02;100821.59;;;13.73;91.84
27294;BME280;14785;52.556;13.430;2023-04-28T08:06:28;100822.97;;;13.53;91.85
27294;BME280;14785;52.556;13.430;2023-04-28T08:08:54;100818.41;;;13.78;94.73
27294;BME280;14785;52.556;13.430;2023-04-28T08:11:20;100822.13;;;13.61;92.15
27294;BME280;14785;52.556;13.430;2023-04-28T08:13:45;100817.63;;;14.00;91.94
27294;BME280;14785;52.556;13.430;2023-04-28T08:16:11;100823.97;;;14.07;89.95
27294;BME280;14785;52.556;13.430;2023-04-28T08:18:37;100819.78;;;14.04;90.56
27294;BME280;14785;52.556;13.430;2023-04-28T08:21:04;100814.38;;;13.82;91.36
27294;BME280;14785;52.556;13.430;2023-04-28T08:23:29;100811.13;;;14.02;94.35
27294;BME280;14785;52.556;13.430;2023-04-28T08:25:56;100813.81;;;13.94;90.41
27294;BME280;14785;52.556;13.430;2023-04-28T08:28:21;100811.50;;;13.91;89.13
27294;BME280;14785;52.556;13.430;2023-04-28T08:30:47;100813.13;;;14.00;90.45
27294;BME280;14785;52.556;13.430;2023-04-28T08:33:13;100803.53;;;14.44;88.83
27294;BME280;14785;52.556;13.430;2023-04-28T08:35:38;100804.91;;;14.40;87.43
27294;BME280;14785;52.556;13.430;2023-04-28T08:38:05;100805.53;;;14.12;89.28
27294;BME280;14785;52.556;13.430;2023-04-28T08:40:31;100802.47;;;14.31;88.08
27294;BME280;14785;52.556;13.430;2023-04-28T08:42:58;100809.41;;;14.85;85.41
27294;BME280;14785;52.556;13.430;2023-04-28T08:45:24;100797.22;;;14.82;83.67
27294;BME280;14785;52.556;13.430;2023-04-28T08:47:50;100793.47;;;14.91;84.74
27294;BME280;14785;52.556;13.430;2023-04-28T08:50:18;100797.16;;;14.90;85.82
27294;BME280;14785;52.556;13.430;2023-04-28T08:52:46;100795.47;;;15.26;83.54
27294;BME280;14785;52.556;13.430;2023-04-28T08:55:11;100790.78;;;14.91;83.90
27294;BME280;14785;52.556;13.430;2023-04-28T09:00:05;100786.63;;;14.89;84.00
27294;BME280;14785;52.556;13.430;2023-04-28T09:02:30;100783.91;;;15.11;82.52
27294;BME280;14785;52.556;13.430;2023-04-28T09:04:56;100781.34;;;15.32;84.72
27294;BME280;14785;52.556;13.430;2023-04-28T09:07:22;100775.72;;;15.71;83.41
27294;BME280;14785;52.556;13.430;2023-04-28T09:09:47;100773.94;;;15.34;82.05
27294;BME280;14785;52.556;13.430;2023-04-28T09:12:13;100769.53;;;15.56;83.05
27294;BME280;14785;52.556;13.430;2023-04-28T09:14:39;100768.16;;;15.46;83.02
27294;BME280;14785;52.556;13.430;2023-04-28T09:17:11;100762.50;;;15.70;81.92
27294;BME280;14785;52.556;13.430;2023-04-28T09:19:38;100766.09;;;15.77;82.09
27294;BME280;14785;52.556;13.430;2023-04-28T09:22:04;100765.63;;;15.73;80.31
27294;BME280;14785;52.556;13.430;2023-04-28T09:26:56;100754.34;;;15.78;80.39
27294;BME280;14785;52.556;13.430;2023-04-28T09:29:22;100750.94;;;15.69;79.60
27294;BME280;14785;52.556;13.430;2023-04-28T09:31:48;100749.25;;;15.83;79.70
27294;BME280;14785;52.556;13.430;2023-04-28T09:34:13;100741.72;;;15.93;79.79
27294;BME280;14785;52.556;13.430;2023-04-28T09:36:39;100745.81;;;15.89;79.21
27294;BME280;14785;52.556;13.430;2023-04-28T09:39:05;100733.88;;;16.27;79.32
27294;BME280;14785;52.556;13.430;2023-04-28T09:44:15;100732.34;;;16.39;77.66
27294;BME280;14785;52.556;13.430;2023-04-28T09:46:42;100721.06;;;16.29;79.33
27294;BME280;14785;52.556;13.430;2023-04-28T09:49:09;100720.56;;;16.40;78.10
27294;BME280;14785;52.556;13.430;2023-04-28T09:51:34;100720.56;;;16.82;76.51
27294;BME280;14785;52.556;13.430;2023-04-28T09:54:01;100720.00;;;16.93;75.33
27294;BME280;14785;52.556;13.430;2023-04-28T09:56:27;100715.44;;;17.21;72.79
27294;BME280;14785;52.556;13.430;2023-04-28T09:58:58;100726.53;;;17.86;72.09
27294;BME280;14785;52.556;13.430;2023-04-28T10:01:26;100713.25;;;18.71;69.14
27294;BME280;14785;52.556;13.430;2023-04-28T10:03:52;100718.38;;;18.27;69.03
27294;BME280;14785;52.556;13.430;2023-04-28T10:06:19;100717.03;;;17.90;70.42
27294;BME280;14785;52.556;13.430;2023-04-28T10:08:44;100711.59;;;18.50;70.02
27294;BME280;14785;52.556;13.430;2023-04-28T10:11:14;100707.81;;;18.25;69.01
27294;BME280;14785;52.556;13.430;2023-04-28T10:13:41;100708.22;;;18.22;70.28
27294;BME280;14785;52.556;13.430;2023-04-28T10:16:09;100711.13;;;18.27;70.13
27294;BME280;14785;52.556;13.430;2023-04-28T10:18:35;100712.78;;;18.28;68.63
27294;BME280;14785;52.556;13.430;2023-04-28T10:21:02;100703.41;;;18.11;69.70
27294;BME280;14785;52.556;13.430;2023-04-28T10:23:51;100704.09;;;18.98;69.19
27294;BME280;14785;52.556;13.430;2023-04-28T10:26:21;100692.31;;;18.79;66.78
27294;BME280;14785;52.556;13.430;2023-04-28T10:28:51;100694.50;;;19.41;66.61
27294;BME280;14785;52.556;13.430;2023-04-28T10:31:18;100692.66;;;19.29;68.88
27294;BME280;14785;52.556;13.430;2023-04-28T10:33:48;100685.25;;;19.68;64.25
27294;BME280;14785;52.556;13.430;2023-04-28T10:36:50;100683.38;;;18.98;65.26
27294;BME280;14785;52.556;13.430;2023-04-28T10:39:19;100668.16;;;19.81;65.39
27294;BME280;14785;52.556;13.430;2023-04-28T10:41:45;100675.41;;;19.43;65.88
27294;BME280;14785;52.556;13.430;2023-04-28T10:55:25;100662.97;;;20.23;62.70
27294;BME280;14785;52.556;13.430;2023-04-28T11:00:45;100659.50;;;20.41;60.67
27294;BME280;14785;52.556;13.430;2023-04-28T11:03:38;100654.84;;;20.97;59.95
27294;BME280;14785;52.556;13.430;2023-04-28T11:08:50;100654.25;;;20.95;59.57
27294;BME280;14785;52.556;13.430;2023-04-28T11:11:17;100650.56;;;21.26;57.60
27294;BME280;14785;52.556;13.430;2023-04-28T11:13:44;100648.63;;;21.98;56.98
27294;BME280;14785;52.556;13.430;2023-04-28T11:16:19;100649.63;;;21.68;55.31
27294;BME280;14785;52.556;13.430;2023-04-28T11:19:11;100642.09;;;21.22;55.73
27294;BME280;14785;52.556;13.430;2023-04-28T11:21:38;100646.59;;;21.94;55.79
27294;BME280;14785;52.556;13.430;2023-04-28T11:24:07;100641.75;;;22.37;53.17
27294;BME280;14785;52.556;13.430;2023-04-28T11:26:36;100642.53;;;22.14;54.83
27294;BME280;14785;52.556;13.430;2023-04-28T11:29:02;100644.63;;;22.12;54.31
27294;BME280;14785;52.556;13.430;2023-04-28T11:31:27;100635.72;;;22.23;54.24
27294;BME280;14785;52.556;13.430;2023-04-28T11:33:57;100640.13;;;21.47;52.20
27294;BME280;14785;52.556;13.430;2023-04-28T11:36:26;100623.84;;;21.18;56.54
27294;BME280;14785;52.556;13.430;2023-04-28T11:38:53;100628.91;;;21.73;56.08
27294;BME280;14785;52.556;13.430;2023-04-28T11:41:20;100638.41;;;21.82;55.67
27294;BME280;14785;52.556;13.430;2023-04-28T11:43:46;100631.69;;;22.14;56.67
27294;BME280;14785;52.556;13.430;2023-04-28T11:46:23;100635.03;;;22.39;56.75
27294;BME280;14785;52.556;13.430;2023-04-28T11:48:59;100625.66;;;22.12;55.78
27294;BME280;14785;52.556;13.430;2023-04-28T11:51:36;100627.50;;;21.23;54.71
27294;BME280;14785;52.556;13.430;2023-04-28T11:54:04;100629.03;;;21.67;56.91
27294;BME280;14785;52.556;13.430;2023-04-28T11:56:36;100618.72;;;21.57;59.48
27294;BME280;14785;52.556;13.430;2023-04-28T11:59:07;100620.28;;;21.35;55.38
27294;BME280;14785;52.556;13.430;2023-04-28T12:01:42;100608.97;;;21.56;57.18
27294;BME280;14785;52.556;13.430;2023-04-28T12:04:08;100612.75;;;21.55;59.44
27294;BME280;14785;52.556;13.430;2023-04-28T12:06:33;100616.97;;;22.10;58.74
27294;BME280;14785;52.556;13.430;2023-04-28T12:08:59;100605.09;;;22.46;55.29
27294;BME280;14785;52.556;13.430;2023-04-28T12:11:29;100611.31;;;21.82;54.68
27294;BME280;14785;52.556;13.430;2023-04-28T12:14:07;100607.22;;;21.32;55.76
27294;BME280;14785;52.556;13.430;2023-04-28T12:16:42;100602.41;;;21.93;58.09
27294;BME280;14785;52.556;13.430;2023-04-28T12:19:09;100606.44;;;22.02;54.98
27294;BME280;14785;52.556;13.430;2023-04-28T12:21:36;100607.25;;;21.73;56.26
27294;BME280;14785;52.556;13.430;2023-04-28T12:26:40;100595.00;;;21.89;55.03
27294;BME280;14785;52.556;13.430;2023-04-28T12:29:06;100599.59;;;21.70;54.73
27294;BME280;14785;52.556;13.430;2023-04-28T12:31:32;100594.38;;;21.10;56.34
27294;BME280;14785;52.556;13.430;2023-04-28T12:33:57;100595.25;;;20.43;59.99
27294;BME280;14785;52.556;13.430;2023-04-28T12:36:23;100585.59;;;20.29;58.07
27294;BME280;14785;52.556;13.430;2023-04-28T12:38:48;100589.81;;;20.86;57.01
27294;BME280;14785;52.556;13.430;2023-04-28T12:41:14;100596.69;;;21.24;56.67
27294;BME280;14785;52.556;13.430;2023-04-28T12:43:39;100579.88;;;21.22;54.55
27294;BME280;14785;52.556;13.430;2023-04-28T12:46:05;100583.72;;;20.97;55.97
27294;BME280;14785;52.556;13.430;2023-04-28T12:48:32;100582.19;;;20.40;58.03
27294;BME280;14785;52.556;13.430;2023-04-28T12:50:58;100579.38;;;20.71;58.46
27294;BME280;14785;52.556;13.430;2023-04-28T12:53:24;100572.22;;;21.19;59.93
27294;BME280;14785;52.556;13.430;2023-04-28T12:55:50;100569.97;;;20.98;59.34
27294;BME280;14785;52.556;13.430;2023-04-28T12:58:15;100567.91;;;21.30;62.35